createdAt,value
2019-02-12T00:01:57.586Z,11.48
2019-02-12T00:04:28.995Z,10.08
2019-02-12T00:07:00.444Z,4.33
2019-02-12T00:09:31.840Z,5.15
2019-02-12T00:12:03.214Z,6.40
2019-02-12T00:14:34.467Z,5.50
2019-02-12T00:17:05.786Z,3.72
2019-02-12T00:19:40.299Z,4.70
2019-02-12T00:22:11.520Z,4.65
2019-02-12T00:24:43.249Z,4.78
2019-02-12T00:27:14.564Z,4.35
2019-02-12T00:29:49.538Z,4.53
2019-02-12T00:32:20.908Z,5.08
2019-02-12T00:34:52.916Z,5.97
2019-02-12T00:37:30.354Z,5.95
2019-02-12T00:40:02.139Z,5.20
2019-02-12T00:42:33.615Z,4.83
2019-02-12T00:45:06.865Z,4.60
2019-02-12T00:47:38.334Z,4.70
2019-02-12T00:50:11.694Z,5.72
2019-02-12T00:52:43.043Z,4.80
2019-02-12T00:55:14.748Z,4.70
2019-02-12T00:57:46.312Z,4.72
2019-02-12T01:00:17.572Z,5.47
2019-02-12T01:02:48.954Z,4.70
2019-02-12T01:05:20.358Z,4.17
2019-02-12T01:07:51.814Z,3.67
2019-02-12T01:10:25.544Z,3.80
2019-02-12T01:12:57.047Z,3.72
2019-02-12T01:15:28.885Z,3.15
2019-02-12T01:18:04.151Z,2.92
2019-02-12T01:20:35.617Z,3.08
2019-02-12T01:23:06.897Z,2.90
2019-02-12T01:25:38.436Z,3.65
2019-02-12T01:28:09.794Z,3.60
2019-02-12T01:30:41.209Z,2.85
2019-02-12T01:33:12.490Z,4.30
2019-02-12T01:35:43.791Z,3.60
2019-02-12T01:38:15.105Z,3.83
2019-02-12T01:40:46.463Z,4.15
2019-02-12T01:43:17.892Z,3.85
2019-02-12T01:45:49.248Z,3.50
2019-02-12T01:48:20.573Z,3.15
2019-02-12T01:50:51.812Z,3.75
2019-02-12T01:53:23.157Z,3.98
2019-02-12T01:55:54.399Z,3.70
2019-02-12T01:58:25.750Z,3.60
2019-02-12T02:00:57.620Z,3.92
2019-02-12T02:03:29.126Z,3.35
2019-02-12T02:06:01.638Z,3.90
2019-02-12T02:08:32.991Z,4.20
2019-02-12T02:11:05.133Z,3.95
2019-02-12T02:13:36.584Z,3.87
2019-02-12T02:16:07.931Z,4.17
2019-02-12T02:18:39.411Z,3.77
2019-02-12T02:21:10.748Z,3.10
2019-02-12T02:23:42.028Z,3.33
2019-02-12T02:26:13.401Z,3.52
2019-02-12T02:28:44.941Z,3.60
2019-02-12T02:31:16.287Z,3.30
2019-02-12T02:33:50.780Z,3.83
2019-02-12T02:36:22.005Z,3.42
2019-02-12T02:38:53.289Z,3.20
2019-02-12T02:41:31.070Z,3.37
2019-02-12T02:44:02.332Z,3.08
2019-02-12T02:46:33.648Z,3.10
2019-02-12T02:49:04.887Z,3.30
2019-02-12T02:51:36.370Z,3.15
2019-02-12T02:54:07.670Z,3.45
2019-02-12T02:56:38.872Z,3.20
2019-02-12T02:59:10.232Z,2.95
2019-02-12T03:01:41.692Z,3.33
2019-02-12T03:04:13.067Z,3.50
2019-02-12T03:06:46.368Z,3.00
2019-02-12T03:09:17.425Z,3.20
2019-02-12T03:11:49.323Z,3.20
2019-02-12T03:14:20.742Z,3.00
2019-02-12T03:16:53.288Z,3.25
2019-02-12T03:19:24.675Z,2.77
2019-02-12T03:22:03.369Z,3.62
2019-02-12T03:24:29.424Z,2.75
2019-02-12T03:27:06.007Z,2.85
2019-02-12T03:29:37.305Z,3.47
2019-02-12T03:32:09.005Z,3.10
2019-02-12T03:34:40.288Z,3.62
2019-02-12T03:37:11.524Z,3.30
2019-02-12T03:39:42.930Z,3.50
2019-02-12T03:42:14.271Z,2.85
2019-02-12T03:44:45.655Z,6.20
2019-02-12T03:47:17.033Z,5.10
2019-02-12T03:49:48.342Z,4.22
2019-02-12T03:52:20.853Z,3.08
2019-02-12T03:54:52.254Z,2.70
2019-02-12T03:57:23.410Z,2.87
2019-02-12T03:59:54.850Z,2.77
2019-02-12T04:02:26.251Z,3.00
2019-02-12T04:04:57.799Z,2.87
2019-02-12T04:07:29.188Z,2.70
2019-02-12T04:10:00.710Z,2.45
2019-02-12T04:12:32.289Z,2.45
2019-02-12T04:15:03.774Z,2.72
2019-02-12T04:17:35.013Z,2.60
2019-02-12T04:20:06.587Z,2.80
2019-02-12T04:22:38.044Z,2.40
2019-02-12T04:25:09.343Z,2.52
2019-02-12T04:27:40.543Z,3.15
2019-02-12T04:30:11.936Z,2.70
2019-02-12T04:32:43.305Z,2.65
2019-02-12T04:35:14.654Z,2.83
2019-02-12T04:37:46.051Z,3.30
2019-02-12T04:40:17.374Z,3.02
2019-02-12T04:42:48.679Z,2.85
2019-02-12T04:45:19.837Z,4.20
2019-02-12T04:47:51.168Z,2.67
2019-02-12T04:50:22.651Z,2.02
2019-02-12T04:52:54.073Z,2.10
2019-02-12T04:55:25.396Z,2.65
2019-02-12T04:57:56.936Z,2.40
2019-02-12T05:00:28.227Z,2.85
2019-02-12T05:02:59.645Z,2.85
2019-02-12T05:05:30.961Z,3.40
2019-02-12T05:08:02.259Z,3.17
2019-02-12T05:10:37.641Z,3.35
2019-02-12T05:13:09.172Z,2.87
2019-02-12T05:15:40.681Z,3.40
2019-02-12T05:18:11.975Z,3.00
2019-02-12T05:20:43.407Z,2.95
2019-02-12T05:23:14.742Z,3.22
2019-02-12T05:25:46.145Z,3.25
2019-02-12T05:28:17.543Z,3.37
2019-02-12T05:30:49.457Z,3.15
2019-02-12T05:33:23.595Z,2.98
2019-02-12T05:35:55.309Z,2.98
2019-02-12T05:38:26.723Z,2.83
2019-02-12T05:40:58.481Z,2.40
2019-02-12T05:43:33.180Z,2.65
2019-02-12T05:46:05.359Z,2.77
2019-02-12T05:48:37.233Z,3.05
2019-02-12T05:51:09.080Z,3.17
2019-02-12T05:53:40.529Z,4.65
2019-02-12T05:56:11.887Z,3.80
2019-02-12T05:58:43.374Z,4.03
2019-02-12T06:01:16.110Z,4.78
2019-02-12T06:03:47.593Z,5.37
2019-02-12T06:06:19.043Z,4.17
2019-02-12T06:08:50.333Z,6.70
2019-02-12T06:11:21.774Z,4.35
2019-02-12T06:13:53.288Z,2.83
2019-02-12T06:16:24.542Z,3.02
2019-02-12T06:18:55.901Z,3.00
2019-02-12T06:21:28.639Z,3.12
2019-02-12T06:23:59.976Z,3.17
2019-02-12T06:26:31.314Z,3.15
2019-02-12T06:29:02.649Z,3.00
2019-02-12T06:31:37.742Z,3.10
2019-02-12T06:34:09.140Z,3.47
2019-02-12T06:36:40.772Z,3.70
2019-02-12T06:39:12.113Z,3.90
2019-02-12T06:41:43.942Z,3.27
2019-02-12T06:44:15.855Z,3.80
2019-02-12T06:46:47.266Z,2.50
2019-02-12T06:49:18.580Z,3.15
2019-02-12T06:51:49.884Z,3.30
2019-02-12T06:54:24.176Z,5.53
2019-02-12T06:56:55.350Z,7.97
2019-02-12T06:59:26.774Z,6.70
2019-02-12T07:02:52.756Z,3.47
2019-02-12T07:05:24.506Z,6.83
2019-02-12T07:08:55.874Z,3.27
2019-02-12T07:12:11.170Z,3.23
2019-02-12T07:15:20.794Z,24.00
2019-02-12T07:18:43.064Z,29.37
2019-02-12T07:21:45.154Z,6.67
2019-02-12T07:24:59.783Z,2.50
2019-02-12T07:28:17.682Z,25.13
2019-02-12T07:32:08.848Z,36.73
2019-02-12T07:35:47.783Z,13.03
2019-02-12T07:38:58.624Z,17.87
2019-02-12T07:42:17.808Z,13.37
2019-02-12T07:45:35.379Z,37.87
2019-02-12T07:48:52.394Z,55.47
2019-02-12T07:51:59.721Z,32.53
2019-02-12T07:54:55.064Z,29.47
2019-02-12T07:58:15.286Z,12.77
2019-02-12T08:01:32.636Z,10.67
2019-02-12T08:04:41.008Z,7.00
2019-02-12T08:08:35.990Z,5.90
2019-02-12T08:11:49.271Z,8.47
2019-02-12T08:15:37.100Z,7.63
2019-02-12T08:18:36.635Z,7.03
2019-02-12T08:22:16.423Z,5.87
2019-02-12T08:26:08.647Z,6.20
2019-02-12T08:29:35.430Z,5.63
2019-02-12T08:32:55.608Z,7.33
2019-02-12T08:36:27.409Z,6.07
2019-02-12T08:39:47.659Z,4.20
2019-02-12T08:42:54.010Z,3.50
2019-02-12T08:46:08.896Z,3.70
2019-02-12T08:49:16.589Z,16.23
2019-02-12T08:52:48.569Z,19.83
2019-02-12T08:55:44.859Z,323.53
2019-02-12T08:59:24.630Z,421.10
2019-02-12T09:02:30.926Z,252.70
2019-02-12T09:05:43.072Z,127.80
2019-02-12T09:08:55.414Z,13.07
2019-02-12T09:12:39.788Z,3.30
2019-02-12T09:16:16.112Z,3.70
2019-02-12T09:19:42.097Z,3.83
2019-02-12T09:22:57.098Z,2.90
2019-02-12T09:26:24.577Z,2.63
2019-02-12T09:29:47.051Z,3.03
2019-02-12T09:33:28.298Z,2.40
2019-02-12T09:37:13.582Z,3.87
2019-02-12T09:40:43.760Z,5.10
2019-02-12T09:44:35.977Z,3.83
2019-02-12T09:47:50.198Z,2.20
2019-02-12T09:50:54.094Z,2.30
2019-02-12T09:54:40.605Z,2.20
2019-02-12T09:57:52.177Z,2.30
2019-02-12T10:00:57.378Z,2.00
2019-02-12T10:04:16.364Z,1.77
2019-02-12T10:07:29.268Z,1.60
2019-02-12T10:10:58.259Z,1.83
2019-02-12T10:14:08.179Z,1.20
2019-02-12T10:17:35.379Z,1.10
2019-02-12T10:20:42.131Z,1.53
2019-02-12T10:24:19.335Z,1.00
2019-02-12T10:26:56.250Z,1.63
2019-02-12T10:30:25.398Z,1.70
2019-02-12T10:32:56.869Z,1.87
2019-02-12T10:35:28.533Z,2.10
2019-02-12T10:38:00.131Z,1.50
2019-02-12T10:40:31.596Z,1.67
2019-02-12T10:43:06.504Z,1.40
2019-02-12T10:45:38.051Z,1.50
2019-02-12T10:48:09.668Z,1.23
2019-02-12T10:50:41.002Z,1.23
2019-02-12T10:53:15.555Z,1.10
2019-02-12T10:55:47.187Z,1.23
2019-02-12T10:58:19.569Z,1.13
2019-02-12T11:00:51.562Z,0.93
2019-02-12T11:03:23.720Z,1.43
2019-02-12T11:05:55.195Z,1.40
2019-02-12T11:08:27.416Z,1.27
2019-02-12T11:10:59.254Z,0.97
2019-02-12T11:13:31.165Z,1.30
2019-02-12T11:16:06.787Z,1.57
2019-02-12T11:18:38.302Z,0.97
2019-02-12T11:21:12.096Z,0.70
2019-02-12T11:23:43.385Z,1.20
2019-02-12T11:26:14.989Z,1.20
2019-02-12T11:28:46.335Z,2.73
2019-02-12T11:31:18.068Z,2.10
2019-02-12T11:33:49.662Z,1.33
2019-02-12T11:36:21.060Z,1.47
2019-02-12T11:38:53.009Z,1.30
2019-02-12T11:41:24.497Z,1.67
2019-02-12T11:43:55.928Z,1.23
2019-02-12T11:46:27.408Z,1.30
2019-02-12T11:48:58.979Z,1.47
2019-02-12T11:51:30.624Z,0.60
2019-02-12T11:54:02.109Z,0.83
2019-02-12T11:56:33.710Z,1.20
2019-02-12T11:59:05.027Z,2.00
2019-02-12T12:01:36.511Z,1.37
2019-02-12T12:04:08.906Z,0.80
2019-02-12T12:06:40.427Z,1.47
2019-02-12T12:09:11.911Z,1.00
2019-02-12T12:11:43.641Z,1.20
2019-02-12T12:14:14.964Z,1.50
2019-02-12T12:16:46.250Z,1.00
2019-02-12T12:19:17.693Z,1.30
2019-02-12T12:21:49.190Z,1.90
2019-02-12T12:24:21.106Z,0.90
2019-02-12T12:26:53.333Z,2.20
2019-02-12T12:29:24.612Z,0.97
2019-02-12T12:31:56.012Z,2.10
2019-02-12T12:34:27.480Z,3.90
2019-02-12T12:36:58.873Z,1.30
2019-02-12T12:39:30.818Z,1.00
2019-02-12T12:42:02.268Z,1.50
2019-02-12T12:44:33.809Z,1.47
2019-02-12T12:47:05.434Z,1.13
2019-02-12T12:49:36.856Z,0.83
2019-02-12T12:52:10.665Z,1.30
2019-02-12T12:54:42.159Z,1.27
2019-02-12T12:57:13.872Z,1.63
2019-02-12T12:59:45.683Z,1.63
2019-02-12T13:02:17.564Z,1.20
2019-02-12T13:04:49.023Z,1.30
2019-02-12T13:07:20.648Z,1.67
2019-02-12T13:09:52.044Z,0.90
2019-02-12T13:12:24.195Z,2.63
2019-02-12T13:14:55.867Z,4.00
2019-02-12T13:17:27.376Z,2.80
2019-02-12T13:19:58.940Z,1.37
2019-02-12T13:22:30.306Z,1.60
2019-02-12T13:25:08.295Z,1.30
2019-02-12T13:27:35.022Z,1.30
2019-02-12T13:30:08.162Z,1.47
2019-02-12T13:32:39.786Z,2.33
2019-02-12T13:35:12.569Z,1.20
2019-02-12T13:37:44.096Z,0.90
2019-02-12T13:40:15.817Z,1.10
2019-02-12T13:42:47.298Z,1.87
2019-02-12T13:45:19.054Z,1.60
2019-02-12T13:47:50.528Z,2.53
2019-02-12T13:50:21.969Z,3.73
2019-02-12T13:52:53.512Z,2.40
2019-02-12T13:55:24.965Z,1.07
2019-02-12T13:57:56.442Z,4.30
2019-02-12T14:00:28.008Z,1.00
2019-02-12T14:02:59.396Z,1.30
2019-02-12T14:05:30.862Z,1.70
2019-02-12T14:08:06.508Z,2.57
2019-02-12T14:10:36.126Z,1.80
2019-02-12T14:13:07.836Z,2.23
2019-02-12T14:15:39.119Z,3.40
2019-02-12T14:18:11.560Z,2.30
2019-02-12T14:20:43.039Z,2.97
2019-02-12T14:23:15.471Z,1.90
2019-02-12T14:26:01.040Z,2.87
2019-02-12T14:28:28.232Z,3.20
2019-02-12T14:31:02.774Z,2.50
2019-02-12T14:33:34.555Z,4.50
2019-02-12T14:36:09.551Z,1.90
2019-02-12T14:38:41.689Z,3.30
2019-02-12T14:41:13.138Z,1.60
2019-02-12T14:43:44.934Z,1.60
2019-02-12T14:46:17.845Z,1.70
2019-02-12T14:48:52.924Z,1.03
2019-02-12T14:51:24.638Z,1.37
2019-02-12T14:53:56.541Z,1.90
2019-02-12T14:56:29.029Z,1.00
2019-02-12T14:59:00.380Z,2.07
2019-02-12T15:01:33.189Z,1.30
2019-02-12T15:04:04.744Z,1.13
2019-02-12T15:06:36.383Z,2.60
2019-02-12T15:09:09.388Z,1.37
2019-02-12T15:11:41.122Z,0.90
2019-02-12T15:14:12.588Z,1.07
2019-02-12T15:16:44.050Z,1.80
2019-02-12T15:19:15.821Z,2.57
2019-02-12T15:21:47.344Z,1.30
2019-02-12T15:24:19.381Z,1.00
2019-02-12T15:26:51.392Z,1.13
2019-02-12T15:29:25.065Z,1.50
2019-02-12T15:31:56.546Z,2.50
2019-02-12T15:34:29.782Z,2.60
2019-02-12T15:37:01.444Z,4.73
2019-02-12T15:39:34.067Z,3.90
2019-02-12T15:42:05.624Z,2.90
2019-02-12T15:44:38.253Z,2.00
2019-02-12T15:47:09.846Z,1.67
2019-02-12T15:49:41.456Z,1.73
2019-02-12T15:52:15.585Z,1.23
2019-02-12T15:54:47.428Z,1.20
2019-02-12T15:57:18.863Z,2.20
2019-02-12T15:59:52.140Z,3.37
2019-02-12T16:02:23.844Z,2.10
2019-02-12T16:04:57.328Z,2.70
2019-02-12T16:07:29.368Z,8.80
2019-02-12T16:10:10.281Z,9.63
2019-02-12T16:12:42.278Z,7.87
2019-02-12T16:15:16.716Z,21.37
2019-02-12T16:17:48.387Z,17.00
2019-02-12T16:20:20.844Z,13.67
2019-02-12T16:22:52.390Z,11.47
2019-02-12T16:25:24.049Z,8.90
2019-02-12T16:27:55.553Z,5.47
2019-02-12T16:30:27.089Z,1.50
2019-02-12T16:32:58.704Z,3.70
2019-02-12T16:35:30.312Z,3.83
2019-02-12T16:38:01.984Z,3.13
2019-02-12T16:40:33.599Z,6.03
2019-02-12T16:43:05.593Z,5.47
2019-02-12T16:46:03.792Z,3.37
2019-02-12T16:48:36.261Z,3.20
2019-02-12T16:51:07.725Z,2.10
2019-02-12T16:53:40.421Z,6.70
2019-02-12T16:56:12.110Z,3.00
2019-02-12T16:58:43.839Z,2.20
2019-02-12T17:01:15.378Z,2.13
2019-02-12T17:03:47.972Z,2.50
2019-02-12T17:06:19.861Z,3.70
2019-02-12T17:08:52.715Z,4.00
2019-02-12T17:11:25.357Z,3.27
2019-02-12T17:13:57.197Z,4.87
2019-02-12T17:16:29.255Z,6.17
2019-02-12T17:19:10.930Z,8.10
2019-02-12T17:21:45.116Z,3.83
2019-02-12T17:24:17.684Z,3.30
2019-02-12T17:26:49.483Z,3.87
2019-02-12T17:29:21.070Z,5.03
2019-02-12T17:31:53.194Z,3.90
2019-02-12T17:34:25.842Z,3.37
2019-02-12T17:36:57.678Z,2.90
2019-02-12T17:39:29.438Z,2.33
2019-02-12T17:42:05.096Z,2.23
2019-02-12T17:44:39.733Z,2.43
2019-02-12T17:47:15.369Z,2.30
2019-02-12T17:49:47.863Z,2.53
2019-02-12T17:52:21.067Z,2.33
2019-02-12T17:54:55.030Z,2.27
2019-02-12T17:57:27.754Z,2.90
2019-02-12T18:00:01.023Z,3.40
2019-02-12T18:02:33.867Z,5.43
2019-02-12T18:05:06.769Z,6.93
2019-02-12T18:07:39.495Z,7.30
2019-02-12T18:10:13.095Z,6.83
2019-02-12T18:12:45.879Z,9.90
2019-02-12T18:15:19.949Z,6.83
2019-02-12T18:17:52.753Z,9.60
2019-02-12T18:20:26.782Z,13.23
2019-02-12T18:23:02.496Z,21.52
2019-02-12T18:25:35.901Z,8.83
2019-02-12T18:28:12.298Z,8.33
2019-02-12T18:30:45.010Z,4.00
2019-02-12T18:33:17.839Z,6.03
2019-02-12T18:35:51.615Z,3.30
2019-02-12T18:38:24.277Z,2.93
2019-02-12T18:40:58.407Z,3.03
2019-02-12T18:43:34.113Z,4.00
2019-02-12T18:46:06.807Z,5.20
2019-02-12T18:48:42.905Z,10.30
2019-02-12T18:51:15.912Z,28.60
2019-02-12T18:53:48.569Z,33.73
2019-02-12T18:56:21.715Z,27.32
2019-02-12T18:58:54.763Z,13.70
2019-02-12T19:01:27.390Z,10.48
2019-02-12T19:04:00.071Z,10.80
2019-02-12T19:06:32.733Z,19.30
2019-02-12T19:09:07.785Z,8.60
2019-02-12T19:11:52.665Z,3.42
2019-02-12T19:14:15.508Z,3.50
2019-02-12T19:16:48.104Z,3.05
2019-02-12T19:19:20.803Z,3.45
2019-02-12T19:21:53.511Z,5.47
2019-02-12T19:24:29.380Z,5.47
2019-02-12T19:27:02.484Z,6.45
2019-02-12T19:29:35.264Z,5.08
2019-02-12T19:32:07.823Z,7.17
2019-02-12T19:34:40.969Z,6.22
2019-02-12T19:37:13.927Z,8.90
2019-02-12T19:39:46.761Z,10.82
2019-02-12T19:42:19.430Z,6.62
2019-02-12T19:44:52.544Z,14.65
2019-02-12T19:47:26.131Z,7.78
2019-02-12T19:49:59.081Z,8.00
2019-02-12T19:52:32.702Z,7.15
2019-02-12T19:55:06.100Z,6.65
2019-02-12T19:57:38.925Z,7.85
2019-02-12T20:00:17.539Z,7.25
2019-02-12T20:02:50.346Z,6.78
2019-02-12T20:05:23.767Z,5.97
2019-02-12T20:07:56.903Z,5.80
2019-02-12T20:10:31.910Z,13.68
2019-02-12T20:13:08.575Z,17.30
2019-02-12T20:15:51.871Z,18.05
2019-02-12T20:18:24.830Z,10.30
2019-02-12T20:20:57.547Z,5.10
2019-02-12T20:23:32.007Z,9.98
2019-02-12T20:26:05.139Z,8.05
2019-02-12T20:28:39.702Z,6.97
2019-02-12T20:31:12.553Z,5.92
2019-02-12T20:33:47.003Z,5.40
2019-02-12T20:36:19.837Z,5.72
2019-02-12T20:38:56.895Z,5.97
2019-02-12T20:41:30.485Z,5.95
2019-02-12T20:44:03.204Z,6.05
2019-02-12T20:46:36.485Z,6.00
2019-02-12T20:49:09.297Z,5.67
2019-02-12T20:51:42.187Z,5.83
2019-02-12T20:54:14.800Z,5.10
2019-02-12T20:56:57.785Z,5.83
2019-02-12T20:59:30.458Z,6.00
2019-02-12T21:02:03.283Z,5.80
2019-02-12T21:04:36.687Z,6.70
2019-02-12T21:07:09.846Z,12.68
2019-02-12T21:09:43.303Z,11.70
2019-02-12T21:12:33.737Z,21.70
2019-02-12T21:15:06.863Z,10.30
2019-02-12T21:17:39.701Z,13.50
2019-02-12T21:20:12.940Z,10.40
2019-02-12T21:22:45.868Z,9.40
2019-02-12T21:25:18.876Z,9.00
2019-02-12T21:27:51.257Z,9.83
2019-02-12T21:30:24.610Z,13.78
2019-02-12T21:32:57.131Z,14.10
2019-02-12T21:35:29.441Z,19.02
2019-02-12T21:38:02.211Z,16.10
2019-02-12T21:40:34.272Z,17.27
2019-02-12T21:43:06.789Z,20.95
2019-02-12T21:45:38.560Z,22.90
2019-02-12T21:48:10.757Z,15.43
2019-02-12T21:50:43.463Z,12.85
2019-02-12T21:53:15.631Z,12.07
2019-02-12T21:55:47.457Z,7.85
2019-02-12T21:58:19.268Z,8.65
2019-02-12T22:00:52.112Z,7.35
2019-02-12T22:03:23.963Z,6.80
2019-02-12T22:05:55.990Z,7.50
2019-02-12T22:08:27.606Z,8.48
2019-02-12T22:10:59.439Z,9.23
2019-02-12T22:13:31.730Z,7.87
2019-02-12T22:16:03.605Z,6.62
2019-02-12T22:18:35.543Z,6.95
2019-02-12T22:21:07.312Z,5.83
2019-02-12T22:23:43.174Z,5.37
2019-02-12T22:26:14.758Z,5.62
2019-02-12T22:28:47.059Z,5.65
2019-02-12T22:31:18.451Z,4.72
2019-02-12T22:33:54.100Z,4.97
2019-02-12T22:36:25.885Z,4.70
2019-02-12T22:38:57.476Z,4.53
2019-02-12T22:41:29.565Z,4.65
2019-02-12T22:44:01.665Z,4.65
2019-02-12T22:46:33.369Z,4.83
2019-02-12T22:49:05.117Z,4.72
2019-02-12T22:51:36.853Z,4.80
2019-02-12T22:54:08.873Z,4.50
2019-02-12T22:56:40.771Z,4.72
2019-02-12T22:59:12.746Z,4.47
2019-02-12T23:01:44.532Z,5.30
2019-02-12T23:04:17.455Z,4.53
2019-02-12T23:06:49.588Z,5.28
2019-02-12T23:09:22.448Z,7.30
2019-02-12T23:11:54.590Z,20.10
2019-02-12T23:14:27.318Z,16.12
2019-02-12T23:16:58.858Z,9.73
2019-02-12T23:19:30.600Z,7.42
2019-02-12T23:22:02.223Z,6.97
2019-02-12T23:24:33.736Z,6.70
2019-02-12T23:27:05.390Z,5.33
2019-02-12T23:29:36.884Z,5.83
2019-02-12T23:32:08.460Z,5.00
2019-02-12T23:34:39.766Z,5.58
2019-02-12T23:37:11.403Z,5.60
2019-02-12T23:39:42.828Z,5.70
2019-02-12T23:42:14.763Z,6.17
2019-02-12T23:44:46.191Z,5.58
2019-02-12T23:47:18.092Z,5.45
2019-02-12T23:49:49.957Z,6.10
2019-02-12T23:52:21.516Z,5.80
2019-02-12T23:54:52.985Z,5.20
2019-02-12T23:57:24.425Z,5.22
2019-02-12T23:59:56.336Z,5.33
